Terminal Aerodrome Forecast
Issued by NWS Pueblo, CO

Home | Current Version | Previous Version | Text Only | Print | Product List | Glossary On
Versions: 1 2 3 4 5 6 7 8 9 10 11 12 13 14 15 16 17 18 19 20 21 22
000
FTUS45 KPUB 171441 AAB
TAFCOS
TAF AMD
KCOS 171441Z 1715/1812 VRB06KT P6SM BKN010
     FM171600 15006KT P6SM SCT050 SCT200
     FM171800 17012KT P6SM FEW200
     FM180300 15007KT P6SM FEW200
     FM180500 01006KT P6SM FEW200=

USA.gov is the U.S. government's official web portal to all federal, state and local government web resources and services.